createdAt,value
2023-02-21T00:00:03.646Z,0
2023-02-21T00:00:44.183Z,0
2023-02-21T00:01:24.717Z,0
2023-02-21T00:02:07.184Z,0
2023-02-21T00:02:47.683Z,0
2023-02-21T00:03:28.194Z,0
2023-02-21T00:08:53.137Z,0
2023-02-21T00:09:33.698Z,0
2023-02-21T00:10:14.213Z,0
2023-02-21T00:10:54.714Z,0
2023-02-21T00:11:35.252Z,0
2023-02-21T00:12:15.788Z,0
2023-02-21T00:12:56.298Z,0
2023-02-21T00:13:36.815Z,0
2023-02-21T00:14:17.376Z,0
2023-02-21T00:14:58.838Z,0
2023-02-21T00:19:43.293Z,0
2023-02-21T00:20:24.466Z,0
2023-02-21T00:21:05.010Z,0
2023-02-21T00:21:45.561Z,0
2023-02-21T00:22:26.088Z,0
2023-02-21T00:23:06.589Z,0
2023-02-21T00:23:47.134Z,0
2023-02-21T00:24:27.690Z,0
2023-02-21T00:25:08.216Z,0
2023-02-21T00:31:13.240Z,0
2023-02-21T00:31:54.449Z,0
2023-02-21T00:32:35.104Z,0
2023-02-21T00:33:16.507Z,0
2023-02-21T00:33:56.974Z,0
2023-02-21T00:34:37.481Z,0
2023-02-21T00:35:18.035Z,0
2023-02-21T00:39:23.589Z,0
2023-02-21T00:40:04.113Z,0
2023-02-21T00:40:44.681Z,0
2023-02-21T00:41:26.624Z,0
2023-02-21T00:42:07.167Z,0
2023-02-21T00:42:47.664Z,0
2023-02-21T00:43:28.206Z,0
2023-02-21T00:47:27.965Z,0
2023-02-21T00:48:08.486Z,0
2023-02-21T00:48:49.025Z,0
2023-02-21T00:49:29.576Z,0
2023-02-21T00:50:10.133Z,0
2023-02-21T00:50:50.638Z,0
2023-02-21T00:51:31.150Z,0
2023-02-21T00:52:11.680Z,0
2023-02-21T00:52:52.958Z,0
2023-02-21T00:57:37.427Z,0
2023-02-21T00:58:17.958Z,0
2023-02-21T00:58:58.477Z,0
2023-02-21T00:59:38.979Z,0
2023-02-21T01:00:19.515Z,0
2023-02-21T01:01:00.099Z,0
2023-02-21T01:01:40.671Z,0
2023-02-21T01:02:21.069Z,0
2023-02-21T01:03:01.785Z,0
2023-02-21T01:03:42.370Z,0
2023-02-21T01:07:47.332Z,0
2023-02-21T01:08:27.869Z,0
2023-02-21T01:09:08.430Z,0
2023-02-21T01:09:48.969Z,0
2023-02-21T01:10:29.558Z,0
2023-02-21T01:11:10.116Z,0
2023-02-21T01:11:50.647Z,0
2023-02-21T01:12:31.179Z,0
2023-02-21T01:13:11.730Z,0
2023-02-21T01:13:52.269Z,0
2023-02-21T01:17:17.148Z,0
2023-02-21T01:17:57.692Z,0
2023-02-21T01:18:38.194Z,0
2023-02-21T01:20:51.308Z,0
2023-02-21T01:21:31.871Z,0
2023-02-21T01:22:12.429Z,0
2023-02-21T01:22:54.893Z,0
2023-02-21T01:23:35.497Z,0
2023-02-21T01:24:16.016Z,0
2023-02-21T01:28:15.296Z,0
2023-02-21T01:28:55.928Z,0
2023-02-21T01:29:36.491Z,0
2023-02-21T01:30:17.146Z,0
2023-02-21T01:30:57.565Z,0
2023-02-21T01:31:38.082Z,0
2023-02-21T01:33:51.823Z,0
2023-02-21T01:34:33.275Z,0
2023-02-21T01:35:12.921Z,0
2023-02-21T01:35:53.454Z,0
2023-02-21T01:36:34.007Z,0
2023-02-21T01:37:14.539Z,0
2023-02-21T01:37:55.103Z,0
2023-02-21T01:40:08.192Z,0
2023-02-21T01:40:48.816Z,0
2023-02-21T01:41:29.334Z,0
2023-02-21T01:42:09.882Z,0
2023-02-21T01:42:50.400Z,0
2023-02-21T01:43:30.896Z,0
2023-02-21T01:44:11.432Z,0
2023-02-21T01:44:51.983Z,0
2023-02-21T01:45:32.498Z,0
2023-02-21T01:46:13.038Z,0
2023-02-21T01:51:38.120Z,0
2023-02-21T01:52:18.672Z,0
2023-02-21T01:52:59.208Z,0
2023-02-21T01:53:40.311Z,0
2023-02-21T01:54:20.821Z,0
2023-02-21T01:55:01.441Z,0
2023-02-21T01:55:41.922Z,0
2023-02-21T01:56:23.097Z,0
2023-02-21T02:01:47.941Z,0
2023-02-21T02:02:28.452Z,0
2023-02-21T02:03:10.382Z,0
2023-02-21T02:03:50.902Z,0
2023-02-21T02:04:32.315Z,0
2023-02-21T02:05:12.816Z,0
2023-02-21T02:09:12.592Z,0
2023-02-21T02:09:53.094Z,0
2023-02-21T02:10:33.703Z,0
2023-02-21T02:11:15.471Z,0
2023-02-21T02:11:55.684Z,0
2023-02-21T02:12:36.287Z,0
2023-02-21T02:13:16.743Z,0
2023-02-21T02:13:57.309Z,0
2023-02-21T02:16:35.835Z,0
2023-02-21T02:17:16.767Z,0
2023-02-21T02:17:56.871Z,0
2023-02-21T02:18:37.388Z,0
2023-02-21T02:19:17.950Z,0
2023-02-21T02:19:58.437Z,0
2023-02-21T02:20:38.936Z,0
2023-02-21T02:21:19.473Z,0
2023-02-21T02:22:00.024Z,0
2023-02-21T02:22:42.106Z,0
2023-02-21T02:27:25.763Z,0
2023-02-21T02:28:06.283Z,0
2023-02-21T02:28:46.771Z,0
2023-02-21T02:29:27.328Z,0
2023-02-21T02:30:07.984Z,0
2023-02-21T02:30:48.467Z,0
2023-02-21T02:31:29.535Z,0
2023-02-21T02:32:10.837Z,0
2023-02-21T02:35:29.781Z,0
2023-02-21T02:36:10.279Z,0
2023-02-21T02:36:51.801Z,0
2023-02-21T02:37:32.324Z,0
2023-02-21T02:38:14.483Z,0
2023-02-21T02:41:34.988Z,0
2023-02-21T02:42:15.512Z,0
2023-02-21T02:42:56.061Z,0
2023-02-21T02:43:36.667Z,0
2023-02-21T02:45:49.851Z,0
2023-02-21T02:46:30.403Z,0
2023-02-21T02:47:10.948Z,0
2023-02-21T02:47:51.518Z,0
2023-02-21T02:48:32.108Z,0
2023-02-21T02:49:12.658Z,0
2023-02-21T02:51:46.193Z,0
2023-02-21T02:52:26.662Z,0
2023-02-21T02:53:08.195Z,0
2023-02-21T02:53:48.683Z,0
2023-02-21T02:56:01.765Z,0
2023-02-21T02:56:42.297Z,0
2023-02-21T02:57:22.827Z,0
2023-02-21T02:58:03.372Z,0
2023-02-21T02:58:43.849Z,0
2023-02-21T02:59:24.372Z,0
2023-02-21T03:00:04.888Z,0
2023-02-21T03:00:45.405Z,0
2023-02-21T03:01:25.976Z,0
2023-02-21T03:02:06.442Z,0
2023-02-21T03:07:47.175Z,0
2023-02-21T03:08:27.728Z,0
2023-02-21T03:09:08.214Z,0
2023-02-21T03:09:48.749Z,0
2023-02-21T03:10:30.227Z,0
2023-02-21T03:11:10.752Z,0
2023-02-21T03:11:51.396Z,0
2023-02-21T03:12:31.900Z,0
2023-02-21T03:15:10.393Z,0
2023-02-21T03:15:50.990Z,0
2023-02-21T03:16:31.517Z,0
2023-02-21T03:17:12.126Z,0
2023-02-21T03:17:52.673Z,0
2023-02-21T03:18:33.220Z,0
2023-02-21T03:19:13.711Z,0
2023-02-21T03:19:54.322Z,0
2023-02-21T03:20:34.953Z,0
2023-02-21T03:25:20.430Z,0
2023-02-21T03:26:01.098Z,0
2023-02-21T03:28:14.183Z,0
2023-02-21T03:28:55.482Z,0
2023-02-21T03:29:35.977Z,0
2023-02-21T03:30:16.513Z,0
2023-02-21T03:32:34.325Z,0
2023-02-21T03:33:14.845Z,0
2023-02-21T03:33:55.381Z,0
2023-02-21T03:34:36.054Z,0
2023-02-21T03:35:16.653Z,0
2023-02-21T03:35:57.149Z,0
2023-02-21T03:38:10.235Z,0
2023-02-21T03:38:50.749Z,0
2023-02-21T03:39:31.270Z,0
2023-02-21T03:40:11.835Z,0
2023-02-21T03:42:24.905Z,0
2023-02-21T03:43:05.611Z,0
2023-02-21T03:43:46.196Z,0
2023-02-21T03:44:26.721Z,0
2023-02-21T03:45:07.251Z,0
2023-02-21T03:45:47.794Z,0
2023-02-21T03:46:28.377Z,0
2023-02-21T03:47:08.888Z,0
2023-02-21T03:47:49.470Z,0
2023-02-21T03:51:44.417Z,0
2023-02-21T03:52:24.967Z,0
2023-02-21T03:53:07.589Z,0
2023-02-21T03:53:46.680Z,0
2023-02-21T03:54:27.289Z,0
2023-02-21T03:55:07.883Z,0
2023-02-21T03:55:48.480Z,0
2023-02-21T03:59:48.139Z,0
2023-02-21T04:00:29.275Z,0
2023-02-21T04:01:09.840Z,0
2023-02-21T04:01:50.289Z,0
2023-02-21T04:02:30.793Z,0
2023-02-21T04:03:11.329Z,0
2023-02-21T04:03:51.895Z,0
2023-02-21T04:04:32.429Z,0
2023-02-21T04:05:12.982Z,0
2023-02-21T04:08:32.001Z,0
2023-02-21T04:09:12.499Z,0
2023-02-21T04:09:53.014Z,0
2023-02-21T04:10:35.867Z,0
2023-02-21T04:11:14.268Z,0
2023-02-21T04:11:54.662Z,0
2023-02-21T04:12:35.166Z,0
2023-02-21T04:13:15.691Z,0
2023-02-21T04:13:56.259Z,0
2023-02-21T04:14:36.804Z,0
2023-02-21T04:20:02.634Z,0
2023-02-21T04:22:16.220Z,0
2023-02-21T04:23:03.018Z,0
2023-02-21T04:23:37.278Z,0
2023-02-21T04:24:18.585Z,0
2023-02-21T04:26:31.651Z,0
2023-02-21T04:27:12.186Z,0
2023-02-21T04:27:52.766Z,0
2023-02-21T04:28:33.312Z,0
2023-02-21T04:29:13.829Z,0
2023-02-21T04:29:54.404Z,0
2023-02-21T04:30:35.016Z,0
2023-02-21T04:31:15.768Z,0
2023-02-21T04:31:56.114Z,0
2023-02-21T04:32:36.552Z,0
2023-02-21T04:38:01.423Z,0
2023-02-21T04:38:41.947Z,0
2023-02-21T04:39:22.450Z,0
2023-02-21T04:40:02.977Z,0
2023-02-21T04:40:43.538Z,0
2023-02-21T04:44:37.540Z,0
2023-02-21T04:45:18.067Z,0
2023-02-21T04:45:58.669Z,0
2023-02-21T04:46:39.781Z,0
2023-02-21T04:47:20.307Z,0
2023-02-21T04:48:01.602Z,0
2023-02-21T04:48:42.148Z,0
2023-02-21T04:54:47.391Z,0
2023-02-21T04:55:27.888Z,0
2023-02-21T04:56:08.410Z,0
2023-02-21T04:56:49.009Z,0
2023-02-21T04:57:29.438Z,0
2023-02-21T04:58:09.967Z,0
2023-02-21T04:58:50.507Z,0
2023-02-21T04:59:31.076Z,0
2023-02-21T05:00:11.593Z,0
2023-02-21T05:00:52.141Z,0
2023-02-21T05:06:12.993Z,0
2023-02-21T05:06:53.528Z,0
2023-02-21T05:07:34.064Z,0
2023-02-21T05:08:16.379Z,0
2023-02-21T05:10:45.079Z,0
2023-02-21T05:11:15.502Z,0
2023-02-21T05:11:55.735Z,0
2023-02-21T05:12:36.263Z,0
2023-02-21T05:13:16.802Z,0
2023-02-21T05:13:57.299Z,0
2023-02-21T05:14:37.835Z,0
2023-02-21T05:16:55.682Z,0
2023-02-21T05:17:45.578Z,0
2023-02-21T05:18:29.009Z,0
2023-02-21T05:19:17.077Z,0
2023-02-21T05:20:05.166Z,0
2023-02-21T05:20:53.092Z,0
2023-02-21T05:21:35.487Z,0
2023-02-21T05:22:20.761Z,0
2023-02-21T05:23:12.933Z,0
2023-02-21T05:23:50.154Z,0
2023-02-21T05:24:32.403Z,0
2023-02-21T05:25:17.430Z,0
2023-02-21T05:26:01.588Z,0
2023-02-21T05:26:47.669Z,0
2023-02-21T05:27:36.583Z,0
2023-02-21T05:28:25.587Z,0
2023-02-21T05:29:11.586Z,0
2023-02-21T05:29:57.665Z,0
2023-02-21T05:31:27.917Z,0
2023-02-21T05:32:12.904Z,0
2023-02-21T05:32:54.912Z,0
2023-02-21T05:33:39.058Z,0
2023-02-21T05:34:26.064Z,0
2023-02-21T05:35:58.563Z,0
2023-02-21T05:36:46.585Z,0
2023-02-21T05:38:13.065Z,0
2023-02-21T05:38:55.576Z,0
2023-02-21T05:40:25.572Z,0
2023-02-21T05:41:11.654Z,0
2023-02-21T05:43:24.731Z,0
2023-02-21T05:44:05.285Z,0
2023-02-21T05:44:46.509Z,0
2023-02-21T05:45:26.983Z,0
2023-02-21T05:46:07.500Z,0
2023-02-21T05:46:47.997Z,0
2023-02-21T05:47:28.553Z,0
2023-02-21T05:49:42.065Z,0
2023-02-21T05:50:23.246Z,0
2023-02-21T05:51:03.777Z,0
2023-02-21T05:51:44.305Z,0
2023-02-21T05:52:24.841Z,0
2023-02-21T05:53:05.324Z,0
2023-02-21T05:53:45.850Z,0
2023-02-21T05:54:26.349Z,4
2023-02-21T05:55:06.875Z,4
2023-02-21T06:01:12.409Z,4
2023-02-21T06:01:52.688Z,4
2023-02-21T06:04:26.092Z,8
2023-02-21T06:05:06.572Z,12
2023-02-21T06:05:47.088Z,12
2023-02-21T06:06:27.611Z,12
2023-02-21T06:07:08.136Z,16
2023-02-21T06:07:48.628Z,16
2023-02-21T06:08:29.151Z,16
2023-02-21T06:09:09.712Z,20
2023-02-21T06:09:50.223Z,24
2023-02-21T06:10:30.743Z,28
2023-02-21T06:15:55.802Z,60
2023-02-21T06:16:36.505Z,68
2023-02-21T06:18:50.943Z,92
2023-02-21T06:19:33.271Z,100
2023-02-21T06:20:11.966Z,104
2023-02-21T06:20:52.502Z,116
2023-02-21T06:21:33.028Z,124
2023-02-21T06:22:14.527Z,132
2023-02-21T06:22:55.052Z,140
2023-02-21T06:29:40.943Z,248
2023-02-21T06:30:23.222Z,260
2023-02-21T06:31:03.277Z,272
2023-02-21T06:33:16.253Z,316
2023-02-21T06:33:56.784Z,332
2023-02-21T06:34:37.341Z,340
2023-02-21T06:35:17.821Z,356
2023-02-21T06:35:58.348Z,372
2023-02-21T06:36:38.856Z,388
2023-02-21T06:37:19.371Z,400
2023-02-21T06:37:59.913Z,416
2023-02-21T06:38:41.262Z,424
2023-02-21T06:43:26.670Z,552
2023-02-21T06:44:07.181Z,572
2023-02-21T06:44:47.690Z,588
2023-02-21T06:45:28.221Z,604
2023-02-21T06:47:42.771Z,684
2023-02-21T06:48:23.305Z,708
2023-02-21T06:49:03.816Z,728
2023-02-21T06:49:44.349Z,752
2023-02-21T06:50:24.852Z,772
2023-02-21T06:51:05.372Z,800
2023-02-21T06:51:45.895Z,824
2023-02-21T06:52:26.420Z,844
2023-02-21T06:53:07.674Z,868
2023-02-21T06:57:47.428Z,1044
2023-02-21T06:58:27.978Z,1068
2023-02-21T06:59:08.503Z,1080
2023-02-21T06:59:49.025Z,1084
2023-02-21T07:00:29.603Z,1092
2023-02-21T07:01:10.149Z,1116
2023-02-21T07:01:50.663Z,1144
2023-02-21T07:02:32.123Z,1172
2023-02-21T07:07:52.421Z,1328
2023-02-21T07:08:32.933Z,1344
2023-02-21T07:09:13.563Z,1364
2023-02-21T07:09:54.089Z,1372
2023-02-21T07:10:34.654Z,1392
2023-02-21T07:11:15.406Z,1408
2023-02-21T07:11:55.713Z,1428
2023-02-21T07:12:36.237Z,1448
2023-02-21T07:13:16.764Z,1464
2023-02-21T07:13:57.408Z,1484
2023-02-21T07:18:42.454Z,1624
2023-02-21T07:19:22.974Z,1640
2023-02-21T07:20:03.490Z,1660
2023-02-21T07:20:44.053Z,1676
2023-02-21T07:21:24.549Z,1700
2023-02-21T07:22:05.089Z,1716
2023-02-21T07:22:45.597Z,1736
2023-02-21T07:23:26.124Z,1760
2023-02-21T07:24:06.676Z,1776
2023-02-21T07:24:47.229Z,1800
2023-02-21T07:25:27.693Z,1820
2023-02-21T07:26:08.240Z,1848
2023-02-21T07:26:48.762Z,1868
2023-02-21T07:27:29.279Z,1888
2023-02-21T07:28:09.790Z,1916
2023-02-21T07:32:47.243Z,2048
2023-02-21T07:33:27.744Z,2068
2023-02-21T07:34:09.922Z,2084
2023-02-21T07:34:50.477Z,2116
2023-02-21T07:37:05.020Z,2296
2023-02-21T07:37:45.514Z,2312
2023-02-21T07:38:26.049Z,2308
2023-02-21T07:39:06.586Z,2380
2023-02-21T07:39:47.094Z,2616
2023-02-21T07:40:27.740Z,2848
2023-02-21T07:41:08.201Z,2884
2023-02-21T07:43:28.982Z,2472
2023-02-21T07:44:10.354Z,2424
2023-02-21T07:44:50.880Z,2392
2023-02-21T07:45:31.374Z,2372
2023-02-21T07:47:47.546Z,2384
2023-02-21T07:48:25.660Z,2396
2023-02-21T07:49:07.599Z,2416
2023-02-21T07:49:48.100Z,2432
2023-02-21T07:52:04.193Z,2484
2023-02-21T07:52:44.745Z,2492
2023-02-21T07:53:25.294Z,2512
2023-02-21T07:54:05.822Z,2524
2023-02-21T07:56:19.896Z,2564
2023-02-21T07:57:05.554Z,2588
2023-02-21T07:57:47.689Z,2604
2023-02-21T07:58:28.240Z,2616
2023-02-21T08:00:43.249Z,2656
2023-02-21T08:01:23.777Z,2672
2023-02-21T08:02:04.281Z,2680
2023-02-21T08:02:44.794Z,2692
2023-02-21T08:03:25.318Z,2700
2023-02-21T08:04:05.846Z,2712
2023-02-21T08:04:46.474Z,2724
2023-02-21T08:05:26.884Z,2736
2023-02-21T08:06:07.400Z,2748
2023-02-21T08:06:47.947Z,2768
2023-02-21T08:12:54.412Z,2876
2023-02-21T08:13:34.961Z,2892
2023-02-21T08:14:16.190Z,2904
2023-02-21T08:14:56.700Z,2912
2023-02-21T08:17:25.833Z,2980
2023-02-21T08:18:07.027Z,2988
2023-02-21T08:18:47.577Z,3000
2023-02-21T08:19:28.112Z,3008
2023-02-21T08:21:41.135Z,3052
2023-02-21T08:22:21.650Z,3064
2023-02-21T08:23:02.173Z,3080
2023-02-21T08:23:42.739Z,3096
2023-02-21T08:24:23.900Z,3112
2023-02-21T08:25:04.403Z,3108
2023-02-21T08:25:44.927Z,3116
2023-02-21T08:26:25.433Z,3128
2023-02-21T08:27:06.539Z,3144
2023-02-21T08:31:06.109Z,3172
2023-02-21T08:31:46.697Z,3180
2023-02-21T08:32:27.848Z,3188
2023-02-21T08:33:08.382Z,3204
2023-02-21T08:33:48.912Z,3204
2023-02-21T08:34:29.458Z,3208
2023-02-21T08:35:09.967Z,3208
2023-02-21T08:35:50.470Z,3220
2023-02-21T08:36:31.000Z,3224
2023-02-21T08:39:24.602Z,3236
2023-02-21T08:40:05.130Z,3256
2023-02-21T08:40:45.677Z,3272
2023-02-21T08:41:26.203Z,3284
2023-02-21T08:42:06.750Z,3288
2023-02-21T08:42:47.228Z,3296
2023-02-21T08:43:28.356Z,3308
2023-02-21T08:44:08.937Z,3320
2023-02-21T08:46:22.423Z,3364
2023-02-21T08:47:03.083Z,3384
2023-02-21T08:47:45.341Z,3408
2023-02-21T08:48:27.722Z,3408
2023-02-21T08:49:08.417Z,3416
2023-02-21T08:52:20.926Z,3456
2023-02-21T08:53:01.436Z,3460
2023-02-21T08:53:41.970Z,3464
2023-02-21T08:54:22.485Z,3464
2023-02-21T08:56:37.562Z,3488
2023-02-21T08:57:18.632Z,3504
2023-02-21T08:58:01.159Z,3512
2023-02-21T08:58:44.221Z,3536
2023-02-21T09:00:57.482Z,3552
2023-02-21T09:01:38.012Z,3540
2023-02-21T09:02:18.575Z,3552
2023-02-21T09:02:59.051Z,3584
2023-02-21T09:03:39.561Z,3616
2023-02-21T09:04:20.104Z,3644
2023-02-21T09:05:00.652Z,3648
2023-02-21T09:05:41.165Z,3664
2023-02-21T09:06:21.707Z,3668
2023-02-21T09:07:02.290Z,3668
2023-02-21T09:14:24.536Z,3768
2023-02-21T09:15:05.047Z,3784
2023-02-21T09:15:45.589Z,3804
2023-02-21T09:16:26.980Z,3820
2023-02-21T09:19:01.761Z,3860
2023-02-21T09:19:42.296Z,3872
2023-02-21T09:20:22.966Z,3880
2023-02-21T09:21:03.422Z,3892
2023-02-21T09:23:16.496Z,3924
2023-02-21T09:23:57.892Z,3924
2023-02-21T09:24:38.423Z,3924
2023-02-21T09:25:18.934Z,3924
2023-02-21T09:27:38.276Z,3984
2023-02-21T09:28:18.788Z,3992
2023-02-21T09:28:59.313Z,4004
2023-02-21T09:29:46.195Z,4000
2023-02-21T09:30:20.431Z,4016
2023-02-21T09:31:00.909Z,4016
2023-02-21T09:31:41.597Z,4052
2023-02-21T09:32:21.968Z,4040
2023-02-21T09:33:02.471Z,4052
2023-02-21T09:33:43.133Z,4068
2023-02-21T09:40:24.851Z,4156
2023-02-21T09:41:06.080Z,4292
2023-02-21T09:41:46.597Z,4504
2023-02-21T09:42:27.112Z,4732
2023-02-21T09:43:07.683Z,4884
2023-02-21T09:43:48.245Z,4980
2023-02-21T09:44:28.799Z,5036
2023-02-21T09:45:09.407Z,5072
2023-02-21T09:45:49.961Z,5088
2023-02-21T09:49:14.599Z,5044
2023-02-21T09:51:47.770Z,4800
2023-02-21T09:52:28.294Z,4620
2023-02-21T09:53:08.818Z,4488
2023-02-21T09:53:49.323Z,4400
2023-02-21T09:54:29.849Z,4380
2023-02-21T09:55:10.331Z,4408
2023-02-21T09:57:08.036Z,4844
2023-02-21T09:57:48.560Z,4988
2023-02-21T09:58:29.111Z,5076
2023-02-21T09:59:09.744Z,5172
2023-02-21T09:59:50.296Z,5260
2023-02-21T10:00:30.826Z,5348
2023-02-21T10:01:11.461Z,5424
2023-02-21T10:03:44.807Z,5860
2023-02-21T10:04:26.208Z,6024
2023-02-21T10:05:07.708Z,6168
2023-02-21T10:05:48.222Z,6312
2023-02-21T10:08:05.200Z,6920
2023-02-21T10:08:47.401Z,7204
2023-02-21T10:09:28.061Z,7416
2023-02-21T10:10:08.600Z,7716
2023-02-21T10:12:06.713Z,8476
2023-02-21T10:12:47.253Z,8656
2023-02-21T10:13:27.861Z,8748
2023-02-21T10:14:08.398Z,8880
2023-02-21T10:14:48.963Z,9080
2023-02-21T10:17:07.150Z,10576
2023-02-21T10:17:47.698Z,10980
2023-02-21T10:18:28.236Z,11312
2023-02-21T10:19:08.844Z,11592
2023-02-21T10:21:26.999Z,12468
2023-02-21T10:22:07.538Z,12728
2023-02-21T10:22:49.671Z,12924
2023-02-21T10:23:32.331Z,13184
2023-02-21T10:25:48.751Z,13872
2023-02-21T10:26:29.413Z,14036
2023-02-21T10:27:09.942Z,14236
2023-02-21T10:27:50.534Z,14432
2023-02-21T10:30:08.498Z,15204
2023-02-21T10:30:49.244Z,15440
2023-02-21T10:31:29.820Z,15696
2023-02-21T10:32:10.989Z,15916
2023-02-21T10:32:52.313Z,15964
2023-02-21T10:33:33.185Z,16064
2023-02-21T10:38:59.016Z,18368
2023-02-21T10:39:39.672Z,18496
2023-02-21T10:40:20.219Z,18528
2023-02-21T10:42:33.530Z,18464
2023-02-21T10:43:17.680Z,18400
2023-02-21T10:44:01.485Z,18144
2023-02-21T10:44:41.952Z,17920
2023-02-21T10:45:24.097Z,17632
2023-02-21T10:46:06.044Z,17440
2023-02-21T10:46:50.960Z,17376
2023-02-21T10:47:34.302Z,17536
2023-02-21T10:48:15.645Z,17856
2023-02-21T10:48:57.857Z,18176
2023-02-21T10:52:17.078Z,20064
2023-02-21T10:52:58.561Z,20704
2023-02-21T10:53:39.048Z,21184
2023-02-21T10:54:21.447Z,21504
2023-02-21T10:56:36.205Z,23232
2023-02-21T10:57:17.507Z,23840
2023-02-21T10:57:59.706Z,24224
2023-02-21T10:58:40.328Z,24736
2023-02-21T11:00:53.483Z,26368
2023-02-21T11:01:34.007Z,26624
2023-02-21T11:02:15.551Z,27200
2023-02-21T11:02:58.054Z,27392
2023-02-21T11:03:38.603Z,27872
2023-02-21T11:05:04.992Z,28544
2023-02-21T11:05:45.545Z,28800
2023-02-21T11:08:21.431Z,29760
2023-02-21T11:09:03.177Z,29952
2023-02-21T11:09:43.703Z,30368
2023-02-21T11:10:24.227Z,30464
2023-02-21T11:12:37.780Z,31040
2023-02-21T11:13:19.148Z,31008
2023-02-21T11:14:00.690Z,31328
2023-02-21T11:14:41.931Z,31424
2023-02-21T11:16:56.226Z,31648
2023-02-21T11:17:37.681Z,31776
2023-02-21T11:18:18.252Z,31872
2023-02-21T11:18:59.035Z,31840
2023-02-21T11:19:39.470Z,31712
2023-02-21T11:20:19.937Z,31936
2023-02-21T11:21:00.442Z,32064
2023-02-21T11:21:40.950Z,32096
2023-02-21T11:28:26.196Z,34304
2023-02-21T11:30:42.506Z,38208
2023-02-21T11:31:23.135Z,40544
2023-02-21T11:32:05.997Z,43456
2023-02-21T11:32:48.037Z,46816
2023-02-21T11:33:28.521Z,49344
2023-02-21T11:34:23.404Z,52544
2023-02-21T11:35:05.418Z,54880
2023-02-21T11:36:32.402Z,57984
2023-02-21T11:37:19.434Z,58272
2023-02-21T11:38:04.418Z,57920
2023-02-21T11:38:51.491Z,57280
2023-02-21T11:39:32.900Z,57312
2023-02-21T11:40:14.507Z,56768
2023-02-21T11:41:48.440Z,56800
2023-02-21T11:42:37.419Z,56384
2023-02-21T11:43:19.527Z,55776
2023-02-21T11:44:01.934Z,54912
2023-02-21T11:44:49.005Z,54944
2023-02-21T11:45:35.088Z,55520
2023-02-21T11:46:22.079Z,55296
2023-02-21T11:47:08.443Z,56320
2023-02-21T11:47:49.853Z,57056
2023-02-21T11:48:31.980Z,57280
2023-02-21T11:49:12.496Z,57536
2023-02-21T11:49:54.958Z,58304
2023-02-21T11:51:23.433Z,58784
2023-02-21T11:52:06.466Z,58368
2023-02-21T11:52:55.548Z,57056
2023-02-21T11:53:40.458Z,55648
2023-02-21T11:54:23.682Z,53472
2023-02-21T11:55:52.405Z,45856
2023-02-21T11:56:39.567Z,41664
2023-02-21T11:57:22.587Z,38720
2023-02-21T11:59:33.034Z,33984
2023-02-21T12:00:15.508Z,33760
2023-02-21T12:01:44.495Z,32960
2023-02-21T12:03:12.963Z,32864
2023-02-21T12:03:58.938Z,32992
2023-02-21T12:04:46.936Z,32672
2023-02-21T12:06:15.135Z,32928
2023-02-21T12:07:39.545Z,32896
2023-02-21T12:08:23.676Z,32640
2023-02-21T12:09:13.456Z,32768
2023-02-21T12:09:54.656Z,32640
2023-02-21T12:11:23.160Z,32640
2023-02-21T12:12:07.639Z,32640
2023-02-21T12:12:50.333Z,32320
2023-02-21T12:13:34.437Z,32320
2023-02-21T12:16:13.823Z,31936
2023-02-21T12:16:54.355Z,31872
2023-02-21T12:17:34.914Z,31904
2023-02-21T12:18:15.447Z,31520
2023-02-21T12:18:56.995Z,31456
2023-02-21T12:21:10.082Z,31136
2023-02-21T12:21:50.620Z,30752
2023-02-21T12:22:31.166Z,30688
2023-02-21T12:23:11.682Z,30816
2023-02-21T12:25:41.214Z,30112
2023-02-21T12:26:21.727Z,30336
2023-02-21T12:27:02.252Z,30176
2023-02-21T12:27:42.822Z,29760
2023-02-21T12:28:23.344Z,29824
2023-02-21T12:29:03.874Z,29568
2023-02-21T12:29:44.412Z,29504
2023-02-21T12:30:24.999Z,29312
2023-02-21T12:32:53.031Z,28672
2023-02-21T12:33:33.565Z,28512
2023-02-21T12:34:14.118Z,28384
2023-02-21T12:34:54.665Z,28160
2023-02-21T12:35:35.283Z,27968
2023-02-21T12:36:15.822Z,27776
2023-02-21T12:36:56.316Z,27680
2023-02-21T12:37:36.939Z,27392
2023-02-21T12:38:17.508Z,27040
2023-02-21T12:38:58.120Z,26816
2023-02-21T12:43:43.118Z,24864
2023-02-21T12:44:23.595Z,24608
2023-02-21T12:45:04.189Z,24320
2023-02-21T12:45:44.696Z,23840
2023-02-21T12:46:25.325Z,23712
2023-02-21T12:47:05.797Z,23392
2023-02-21T12:47:46.361Z,22912
2023-02-21T12:48:26.942Z,22560
2023-02-21T12:49:07.464Z,22208
2023-02-21T12:49:47.994Z,21888
2023-02-21T12:55:12.933Z,18816
2023-02-21T12:55:54.406Z,18528
2023-02-21T12:56:35.000Z,18208
2023-02-21T12:57:15.595Z,17824
2023-02-21T12:57:56.058Z,17536
2023-02-21T12:58:36.611Z,17216
2023-02-21T12:59:17.161Z,16864
2023-02-21T13:01:30.040Z,15832
2023-02-21T13:02:10.652Z,15520
2023-02-21T13:02:51.103Z,15200
2023-02-21T13:03:32.536Z,14868
2023-02-21T13:04:13.044Z,14616
2023-02-21T13:04:53.549Z,14392
2023-02-21T13:05:34.112Z,14068
2023-02-21T13:06:14.662Z,13792
2023-02-21T13:12:20.143Z,11852
2023-02-21T13:13:00.676Z,11668
2023-02-21T13:15:13.481Z,10980
2023-02-21T13:15:54.109Z,10748
2023-02-21T13:16:35.264Z,10504
2023-02-21T13:17:16.966Z,10288
2023-02-21T13:17:56.401Z,10080
2023-02-21T13:18:36.999Z,9828
2023-02-21T13:19:17.569Z,9600
2023-02-21T13:19:59.397Z,9372
2023-02-21T13:22:53.521Z,8248
2023-02-21T13:23:34.127Z,7968
2023-02-21T13:24:14.676Z,7704
2023-02-21T13:24:55.237Z,7448
2023-02-21T13:27:09.362Z,6632
2023-02-21T13:27:49.957Z,6428
2023-02-21T13:28:30.564Z,6216
2023-02-21T13:29:11.088Z,6020
2023-02-21T13:31:24.859Z,5416
2023-02-21T13:32:05.391Z,5240
2023-02-21T13:32:45.790Z,5064
2023-02-21T13:33:26.347Z,4904
2023-02-21T13:35:41.846Z,4472
2023-02-21T13:36:22.430Z,4360
2023-02-21T13:37:03.045Z,4272
2023-02-21T13:37:43.685Z,4192
2023-02-21T13:40:12.000Z,3952
2023-02-21T13:40:53.100Z,3908
2023-02-21T13:41:35.572Z,3864
2023-02-21T13:42:17.968Z,3828
2023-02-21T13:44:16.123Z,3756
2023-02-21T13:44:57.497Z,3728
2023-02-21T13:45:38.053Z,3712
2023-02-21T13:46:18.636Z,3688
2023-02-21T13:48:33.146Z,3628
2023-02-21T13:49:13.675Z,3616
2023-02-21T13:49:56.138Z,3604
2023-02-21T13:50:38.446Z,3592
2023-02-21T13:53:09.578Z,3552
2023-02-21T13:53:49.996Z,3544
2023-02-21T13:54:32.284Z,3532
2023-02-21T13:55:15.009Z,3524
2023-02-21T13:57:12.941Z,3488
2023-02-21T13:57:53.455Z,3476
2023-02-21T13:58:33.998Z,3468
2023-02-21T13:59:14.546Z,3456
2023-02-21T14:01:12.511Z,3436
2023-02-21T14:01:53.064Z,3428
2023-02-21T14:02:33.597Z,3416
2023-02-21T14:03:14.105Z,3408
2023-02-21T14:03:54.704Z,3400
2023-02-21T14:04:35.204Z,3396
2023-02-21T14:05:15.765Z,3392
2023-02-21T14:05:56.272Z,3380
2023-02-21T14:11:22.551Z,3276
2023-02-21T14:12:03.080Z,3268
2023-02-21T14:12:43.623Z,3256
2023-02-21T14:13:24.161Z,3244
2023-02-21T14:14:04.672Z,3232
2023-02-21T14:16:18.072Z,3196
2023-02-21T14:16:59.003Z,3176
2023-02-21T14:17:39.586Z,3168
2023-02-21T14:18:20.091Z,3152
2023-02-21T14:19:00.604Z,3140
2023-02-21T14:19:42.959Z,3128
2023-02-21T14:22:21.472Z,3092
2023-02-21T14:23:09.594Z,3080
2023-02-21T14:23:55.607Z,3076
2023-02-21T14:24:36.824Z,3064
2023-02-21T14:25:18.017Z,3056
2023-02-21T14:25:59.056Z,3052
2023-02-21T14:28:32.941Z,3016
2023-02-21T14:29:14.469Z,3008
2023-02-21T14:29:56.011Z,2988
2023-02-21T14:32:32.299Z,2948
2023-02-21T14:33:14.376Z,2936
2023-02-21T14:33:53.356Z,2928
2023-02-21T14:34:33.843Z,2916
2023-02-21T14:35:14.366Z,2904
2023-02-21T14:35:54.873Z,2892
2023-02-21T14:36:35.956Z,2876
2023-02-21T14:37:17.023Z,2864
2023-02-21T14:39:31.381Z,2828
2023-02-21T14:40:12.571Z,2816
2023-02-21T14:40:53.101Z,2804
2023-02-21T14:41:34.264Z,2792
2023-02-21T14:43:48.626Z,2756
2023-02-21T14:44:29.171Z,2744
2023-02-21T14:45:09.707Z,2736
2023-02-21T14:45:50.322Z,2728
2023-02-21T14:46:30.814Z,2720
2023-02-21T14:47:11.316Z,2708
2023-02-21T14:49:09.389Z,2676
2023-02-21T14:49:50.865Z,2660
2023-02-21T14:50:31.517Z,2648
2023-02-21T14:51:12.087Z,2636
2023-02-21T14:53:45.476Z,2596
2023-02-21T14:54:25.996Z,2584
2023-02-21T14:55:06.568Z,2572
2023-02-21T14:55:47.148Z,2556
2023-02-21T14:58:06.377Z,2520
2023-02-21T14:58:46.938Z,2508
2023-02-21T14:59:27.585Z,2496
2023-02-21T15:00:08.136Z,2488